Time,TemperatureF,DewpointF,PressureIn,WindDirection,WindDirectionDegrees,WindSpeedMPH,WindSpeedGustMPH,Humidity,HourlyPrecipIn,Conditions,Clouds,dailyrainin,SoftwareType,DateUTC
2013-07-23 00:08:00,-999.0,-99.9,29.74,North,-999,-999.0,-999.0,-999,0.00,,,0.00,weatherlink.com 1.10,2013-07-23 04:08:00,
2013-07-23 00:23:00,-999.0,-99.9,29.73,North,-999,-999.0,-999.0,-999,0.00,,,0.00,weatherlink.com 1.10,2013-07-23 04:23:00,
2013-07-23 00:38:00,-999.0,-99.9,29.72,North,-999,-999.0,-999.0,-999,0.00,,,0.00,weatherlink.com 1.10,2013-07-23 04:38:00,
2013-07-23 00:53:00,-999.0,-99.9,29.72,North,-999,-999.0,-999.0,-999,0.00,,,0.00,weatherlink.com 1.10,2013-07-23 04:53:00,
2013-07-23 01:09:00,-999.0,-99.9,29.73,North,-999,-999.0,-999.0,-999,0.00,,,0.00,weatherlink.com 1.10,2013-07-23 05:09:00,
2013-07-23 01:24:00,-999.0,-99.9,29.73,North,-999,-999.0,-999.0,-999,0.00,,,0.00,weatherlink.com 1.10,2013-07-23 05:24:00,
2013-07-23 01:39:00,-999.0,-99.9,29.73,North,-999,-999.0,-999.0,-999,0.00,,,0.00,weatherlink.com 1.10,2013-07-23 05:39:00,
2013-07-23 01:54:00,-999.0,-99.9,29.73,North,-999,-999.0,-999.0,-999,0.00,,,0.00,weatherlink.com 1.10,2013-07-23 05:54:00,
2013-07-23 02:09:00,-999.0,-99.9,29.73,North,-999,-999.0,-999.0,-999,0.00,,,0.00,weatherlink.com 1.10,2013-07-23 06:09:00,
2013-07-23 02:24:00,-999.0,-99.9,29.72,North,-999,-999.0,-999.0,-999,0.00,,,0.00,weatherlink.com 1.10,2013-07-23 06:24:00,
2013-07-23 02:39:00,-999.0,-99.9,29.71,North,-999,-999.0,-999.0,-999,0.00,,,0.00,weatherlink.com 1.10,2013-07-23 06:39:00,
2013-07-23 02:54:00,-999.0,-99.9,29.71,North,-999,-999.0,-999.0,-999,0.00,,,0.00,weatherlink.com 1.10,2013-07-23 06:54:00,
2013-07-23 03:09:00,-999.0,-99.9,29.70,North,-999,-999.0,-999.0,-999,0.00,,,0.00,weatherlink.com 1.10,2013-07-23 07:09:00,
2013-07-23 03:24:00,-999.0,-99.9,29.70,North,-999,-999.0,-999.0,-999,0.00,,,0.00,weatherlink.com 1.10,2013-07-23 07:24:00,
2013-07-23 03:39:00,-999.0,-99.9,29.70,North,-999,-999.0,-999.0,-999,0.00,,,0.00,weatherlink.com 1.10,2013-07-23 07:39:00,
2013-07-23 03:54:00,-999.0,-99.9,29.69,North,-999,-999.0,-999.0,-999,0.00,,,0.00,weatherlink.com 1.10,2013-07-23 07:54:00,
2013-07-23 04:09:00,-999.0,-99.9,29.69,North,-999,-999.0,-999.0,-999,0.00,,,0.00,weatherlink.com 1.10,2013-07-23 08:09:00,
2013-07-23 04:25:00,-999.0,-99.9,29.68,North,-999,-999.0,-999.0,-999,0.00,,,0.00,weatherlink.com 1.10,2013-07-23 08:25:00,
2013-07-23 04:40:00,-999.0,-99.9,29.69,North,-999,-999.0,-999.0,-999,0.00,,,0.00,weatherlink.com 1.10,2013-07-23 08:40:00,
2013-07-23 04:55:00,-999.0,-99.9,29.69,North,-999,-999.0,-999.0,-999,0.00,,,0.00,weatherlink.com 1.10,2013-07-23 08:55:00,
2013-07-23 05:10:00,-999.0,-99.9,29.70,North,-999,-999.0,-999.0,-999,0.00,,,0.00,weatherlink.com 1.10,2013-07-23 09:10:00,
2013-07-23 05:25:00,-999.0,-99.9,29.70,North,-999,-999.0,-999.0,-999,0.00,,,0.00,weatherlink.com 1.10,2013-07-23 09:25:00,
2013-07-23 05:40:00,-999.0,-99.9,29.70,North,-999,-999.0,-999.0,-999,0.00,,,0.00,weatherlink.com 1.10,2013-07-23 09:40:00,
2013-07-23 05:55:00,-999.0,-99.9,29.69,North,-999,-999.0,-999.0,-999,0.00,,,0.00,weatherlink.com 1.10,2013-07-23 09:55:00,
2013-07-23 06:10:00,-999.0,-99.9,29.69,North,-999,-999.0,-999.0,-999,0.00,,,0.00,weatherlink.com 1.10,2013-07-23 10:10:00,
2013-07-23 06:25:00,-999.0,-99.9,29.70,North,-999,-999.0,-999.0,-999,0.00,,,0.00,weatherlink.com 1.10,2013-07-23 10:25:00,
2013-07-23 06:40:00,-999.0,-99.9,29.70,North,-999,-999.0,-999.0,-999,0.00,,,0.00,weatherlink.com 1.10,2013-07-23 10:40:00,
2013-07-23 06:55:00,-999.0,-99.9,29.70,North,-999,-999.0,-999.0,-999,0.00,,,0.00,weatherlink.com 1.10,2013-07-23 10:55:00,
2013-07-23 07:10:00,71.7,66.0,29.71,WSW,254,0.0,3.0,82,0.00,,,0.00,weatherlink.com 1.10,2013-07-23 11:10:00,
2013-07-23 07:25:00,-999.0,-99.9,29.71,North,-999,-999.0,-999.0,-999,0.00,,,0.00,weatherlink.com 1.10,2013-07-23 11:25:00,
2013-07-23 07:40:00,-999.0,-99.9,29.72,North,-999,-999.0,-999.0,-999,0.00,,,0.00,weatherlink.com 1.10,2013-07-23 11:40:00,
2013-07-23 07:56:00,-999.0,-99.9,29.73,North,-999,-999.0,-999.0,-999,0.00,,,0.00,weatherlink.com 1.10,2013-07-23 11:56:00,
2013-07-23 08:11:00,73.8,67.0,29.73,West,270,0.0,3.0,79,0.00,,,0.00,weatherlink.com 1.10,2013-07-23 12:11:00,
2013-07-23 08:26:00,74.5,67.0,29.73,SSW,207,0.0,3.0,78,0.00,,,0.00,weatherlink.com 1.10,2013-07-23 12:26:00,
2013-07-23 08:41:00,75.0,67.0,29.73,West,268,0.0,5.0,76,0.00,,,0.00,weatherlink.com 1.10,2013-07-23 12:41:00,
2013-07-23 08:56:00,76.0,67.0,29.72,West,276,0.0,3.0,73,0.00,,,0.00,weatherlink.com 1.10,2013-07-23 12:56:00,
2013-07-23 09:11:00,79.1,69.0,29.72,SW,228,0.0,1.0,70,0.00,,,0.00,weatherlink.com 1.10,2013-07-23 13:11:00,
2013-07-23 09:26:00,81.0,69.0,29.72,West,271,0.0,4.0,66,0.00,,,0.00,weatherlink.com 1.10,2013-07-23 13:26:00,
2013-07-23 09:41:00,82.3,68.0,29.71,SW,223,0.0,3.0,63,0.00,,,0.00,weatherlink.com 1.10,2013-07-23 13:41:00,
2013-07-23 09:56:00,79.7,66.0,29.71,WNW,290,1.0,4.0,64,0.00,,,0.00,weatherlink.com 1.10,2013-07-23 13:56:00,
2013-07-23 10:11:00,79.1,67.0,29.71,WSW,257,0.0,3.0,67,0.00,,,0.00,weatherlink.com 1.10,2013-07-23 14:11:00,
2013-07-23 10:26:00,81.1,68.0,29.71,SSW,200,0.0,5.0,65,0.00,,,0.00,weatherlink.com 1.10,2013-07-23 14:26:00,
2013-07-23 10:41:00,82.1,68.0,29.71,SSW,203,0.0,6.0,63,0.00,,,0.00,weatherlink.com 1.10,2013-07-23 14:41:00,
2013-07-23 10:56:00,83.5,68.0,29.71,SSW,202,2.0,6.0,60,0.00,,,0.00,weatherlink.com 1.10,2013-07-23 14:56:00,
2013-07-23 11:11:00,84.2,68.0,29.72,South,186,0.0,7.0,58,0.00,,,0.00,weatherlink.com 1.10,2013-07-23 15:11:00,
2013-07-23 11:26:00,85.0,67.0,29.72,WNW,298,0.0,6.0,55,0.00,,,0.00,weatherlink.com 1.10,2013-07-23 15:26:00,
2013-07-23 11:41:00,85.2,67.0,29.72,SSW,192,0.0,9.0,54,0.00,,,0.00,weatherlink.com 1.10,2013-07-23 15:41:00,
2013-07-23 11:56:00,85.8,67.0,29.72,WSW,254,0.0,5.0,54,0.00,,,0.00,weatherlink.com 1.10,2013-07-23 15:56:00,
2013-07-23 12:11:00,86.2,69.0,29.71,WNW,296,0.0,5.0,56,0.00,,,0.00,weatherlink.com 1.10,2013-07-23 16:11:00,
2013-07-23 12:26:00,86.6,67.0,29.71,South,187,0.0,5.0,52,0.00,,,0.00,weatherlink.com 1.10,2013-07-23 16:26:00,
2013-07-23 12:41:00,86.0,66.0,29.72,WNW,303,0.0,5.0,52,0.00,,,0.00,weatherlink.com 1.10,2013-07-23 16:41:00,
2013-07-23 12:56:00,85.6,67.0,29.72,SSW,198,0.0,3.0,54,0.00,,,0.00,weatherlink.com 1.10,2013-07-23 16:56:00,
2013-07-23 13:11:00,85.2,67.0,29.72,NNW,330,0.0,3.0,55,0.00,,,0.00,weatherlink.com 1.10,2013-07-23 17:11:00,
2013-07-23 13:26:00,85.4,67.0,29.72,South,171,1.0,5.0,54,0.00,,,0.00,weatherlink.com 1.10,2013-07-23 17:26:00,
2013-07-23 13:56:00,87.1,67.0,29.72,East,88,0.0,3.0,52,0.00,,,0.00,weatherlink.com 1.10,2013-07-23 17:56:00,
2013-07-23 14:11:00,87.1,67.0,29.71,WNW,293,0.0,6.0,52,0.00,,,0.00,weatherlink.com 1.10,2013-07-23 18:11:00,
2013-07-23 14:26:00,87.7,65.0,29.71,NW,325,1.0,5.0,47,0.00,,,0.00,weatherlink.com 1.10,2013-07-23 18:26:00,
2013-07-23 14:41:00,88.5,66.0,29.70,West,262,2.0,4.0,48,0.00,,,0.00,weatherlink.com 1.10,2013-07-23 18:41:00,
2013-07-23 14:56:00,88.7,67.0,29.70,SSW,211,4.0,4.0,49,0.00,,,0.00,weatherlink.com 1.10,2013-07-23 18:56:00,
2013-07-23 15:11:00,88.1,67.0,29.69,West,279,0.0,8.0,50,0.00,,,0.00,weatherlink.com 1.10,2013-07-23 19:11:00,
2013-07-23 15:41:00,88.3,67.0,29.69,South,174,0.0,3.0,49,0.00,,,0.00,weatherlink.com 1.10,2013-07-23 19:41:00,
2013-07-23 15:56:00,88.5,66.0,29.69,NNW,342,0.0,6.0,47,0.00,,,0.00,weatherlink.com 1.10,2013-07-23 19:56:00,
2013-07-23 16:11:00,88.5,69.0,29.68,NE,43,1.0,5.0,52,0.00,,,0.00,weatherlink.com 1.10,2013-07-23 20:11:00,
2013-07-23 16:26:00,87.5,68.0,29.67,SW,214,0.0,3.0,53,0.00,,,0.00,weatherlink.com 1.10,2013-07-23 20:26:00,
2013-07-23 16:57:00,86.4,67.0,29.66,SSW,210,0.0,3.0,53,0.00,,,0.00,weatherlink.com 1.10,2013-07-23 20:57:00,
2013-07-23 17:12:00,86.6,66.0,29.66,WSW,258,0.0,3.0,50,0.00,,,0.00,weatherlink.com 1.10,2013-07-23 21:12:00,
2013-07-23 17:27:00,86.2,66.0,29.66,South,169,0.0,5.0,51,0.00,,,0.00,weatherlink.com 1.10,2013-07-23 21:27:00,
2013-07-23 17:41:00,86.0,66.0,29.66,SSW,197,1.0,2.0,51,0.00,,,0.00,weatherlink.com 1.10,2013-07-23 21:41:00,
2013-07-23 17:56:00,85.8,66.0,29.65,West,261,1.0,2.0,51,0.00,,,0.00,weatherlink.com 1.10,2013-07-23 21:56:00,
2013-07-23 18:11:00,85.4,67.0,29.65,WSW,252,0.0,0.0,54,0.00,,,0.00,weatherlink.com 1.10,2013-07-23 22:11:00,
2013-07-23 18:26:00,85.0,67.0,29.64,SW,236,0.0,4.0,55,0.00,,,0.00,weatherlink.com 1.10,2013-07-23 22:26:00,
2013-07-23 19:11:00,83.3,67.0,29.65,SSW,200,0.0,2.0,59,0.00,,,0.00,weatherlink.com 1.10,2013-07-23 23:11:00,
2013-07-23 19:26:00,-999.0,-99.9,29.64,North,-999,-999.0,-999.0,-999,0.00,,,0.00,weatherlink.com 1.10,2013-07-23 23:26:00,
2013-07-23 19:42:00,-999.0,-99.9,29.65,North,-999,-999.0,-999.0,-999,0.00,,,0.00,weatherlink.com 1.10,2013-07-23 23:42:00,
2013-07-23 19:57:00,-999.0,-99.9,29.65,North,-999,-999.0,-999.0,-999,0.00,,,0.00,weatherlink.com 1.10,2013-07-23 23:57:00,
2013-07-23 20:12:00,-999.0,-99.9,29.66,North,-999,-999.0,-999.0,-999,0.00,,,0.00,weatherlink.com 1.10,2013-07-24 00:12:00,
2013-07-23 20:27:00,-999.0,-99.9,29.67,North,-999,-999.0,-999.0,-999,0.00,,,0.00,weatherlink.com 1.10,2013-07-24 00:27:00,
2013-07-23 20:42:00,-999.0,-99.9,29.67,North,-999,-999.0,-999.0,-999,0.00,,,0.00,weatherlink.com 1.10,2013-07-24 00:42:00,
2013-07-23 20:57:00,-999.0,-99.9,29.67,North,-999,-999.0,-999.0,-999,0.00,,,0.00,weatherlink.com 1.10,2013-07-24 00:57:00,
2013-07-23 21:27:00,-999.0,-99.9,29.67,North,-999,-999.0,-999.0,-999,0.00,,,0.00,weatherlink.com 1.10,2013-07-24 01:27:00,
2013-07-23 21:42:00,-999.0,-99.9,29.68,North,-999,-999.0,-999.0,-999,0.00,,,0.00,weatherlink.com 1.10,2013-07-24 01:42:00,
2013-07-23 21:57:00,-999.0,-99.9,29.69,North,-999,-999.0,-999.0,-999,0.00,,,0.00,weatherlink.com 1.10,2013-07-24 01:57:00,
2013-07-23 22:12:00,-999.0,-99.9,29.69,North,-999,-999.0,-999.0,-999,0.00,,,0.00,weatherlink.com 1.10,2013-07-24 02:12:00,
2013-07-23 22:27:00,-999.0,-99.9,29.69,North,-999,-999.0,-999.0,-999,0.00,,,0.00,weatherlink.com 1.10,2013-07-24 02:27:00,
2013-07-23 22:42:00,-999.0,-99.9,29.69,North,-999,-999.0,-999.0,-999,0.00,,,0.00,weatherlink.com 1.10,2013-07-24 02:42:00,
2013-07-23 22:58:00,-999.0,-99.9,29.69,North,-999,-999.0,-999.0,-999,0.00,,,0.00,weatherlink.com 1.10,2013-07-24 02:58:00,
2013-07-23 23:13:00,-999.0,-99.9,29.70,North,-999,-999.0,-999.0,-999,0.00,,,0.00,weatherlink.com 1.10,2013-07-24 03:13:00,
2013-07-23 23:28:00,-999.0,-99.9,29.70,North,-999,-999.0,-999.0,-999,0.00,,,0.00,weatherlink.com 1.10,2013-07-24 03:28:00,
2013-07-23 23:43:00,-999.0,-99.9,29.70,North,-999,-999.0,-999.0,-999,0.00,,,0.00,weatherlink.com 1.10,2013-07-24 03:43:00,
2013-07-23 23:58:00,-999.0,-99.9,29.70,North,-999,-999.0,-999.0,-999,0.00,,,0.00,weatherlink.com 1.10,2013-07-24 03:58:00,